P/v Golden Gate — WDE5665 — position and weather

sailwx.info

Track history (hours):
 
Tides and Currents Weather Stations Pressure Air Temp Water Temp Dewpoint Dewpoint Depression Visibility Wind Speed Wind Dir Waves Ship Positions

P/v Golden Gate

Owner: San Francisco Bar Pilots Benevolent and Protective, San Francisco, CA. More information available from US FCC via Universal Licensing System and Coast Guard Vessel Documentation Center.

Last reported at 2018-Feb-20 17:30 UTC. Time now 2018-Feb-20 17:42 UTC.
Position N 37°48' W 122°24'.

Length 21 m.

Type: Pilot. MMSI: 367370010.

Date/timePositionNaut miles runAvg speedWind from/ knotsBaromVisibWave heightAir tempDewpointWater temp
2018-Feb-20 17:30N 37°48' W 122°24'0 0.0
2018-Feb-20 17:00N 37°48' W 122°24'0 0.0
2018-Feb-20 16:30N 37°48' W 122°24'0 0.0
2018-Feb-20 16:00N 37°48' W 122°24'0 0.0
2018-Feb-20 15:30N 37°48' W 122°24'0 0.0
2018-Feb-20 15:00N 37°48' W 122°24'0 0.0
2018-Feb-20 14:30N 37°48' W 122°24'0 0.0
2018-Feb-20 14:00N 37°48' W 122°24'4 8.1
2018-Feb-20 13:30N 37°48' W 122°19'4 7.9
2018-Feb-20 13:00N 37°48' W 122°24'0 0.0
2018-Feb-20 12:30N 37°48' W 122°24'0 0.0
2018-Feb-20 12:00N 37°48' W 122°24'0 0.0
2018-Feb-20 11:30N 37°48' W 122°24'0 0.0
2018-Feb-20 11:00N 37°48' W 122°24'3 5.8
2018-Feb-20 10:30N 37°49' W 122°20'2 3.1
2018-Feb-20 10:00N 37°47' W 122°20'3 5.6
2018-Feb-20 09:30N 37°48' W 122°24'0 0.0
2018-Feb-20 09:00N 37°48' W 122°24'0 0.0
2018-Feb-20 08:30N 37°48' W 122°24'0 0.0
2018-Feb-20 08:01N 37°48' W 122°24'0 0.0
2018-Feb-20 07:30N 37°48' W 122°24'2 4.9
2018-Feb-20 07:00N 37°48' W 122°21'2 5.0
2018-Feb-20 06:30N 37°46' W 122°21'0 0.9
2018-Feb-20 06:00N 37°46' W 122°22'2 4.8
2018-Feb-20 05:30N 37°48' W 122°24'0 0.0
2018-Feb-20 05:00N 37°48' W 122°24'0 0.0
2018-Feb-20 04:30N 37°48' W 122°24'0 0.0
2018-Feb-20 04:00N 37°48' W 122°24'0 0.0
2018-Feb-20 03:30N 37°48' W 122°24'0 0.0
2018-Feb-20 03:00N 37°48' W 122°24'4 8.6
2018-Feb-20 02:30N 37°49' W 122°29'3 5.2
2018-Feb-20 02:01N 37°49' W 122°26'5 9.3
2018-Feb-20 01:30N 37°49' W 122°20'3 5.9
2018-Feb-20 01:00N 37°48' W 122°24'0 0.0
2018-Feb-20 00:30N 37°48' W 122°24'0 0.0
2018-Feb-20 00:00N 37°48' W 122°24'0 0.0
2018-Feb-19 23:31N 37°48' W 122°24'0 0.0
2018-Feb-19 23:00N 37°48' W 122°24'0 0.0
2018-Feb-19 22:30N 37°48' W 122°24'0 0.3
2018-Feb-19 22:00N 37°48' W 122°24'1 1.6
2018-Feb-19 21:30N 37°48' W 122°23'5 9.5
2018-Feb-19 21:00N 37°43' W 122°21'510.6
2018-Feb-19 20:30N 37°48' W 122°24'0 0.1
2018-Feb-19 20:00N 37°48' W 122°24'0 0.0
2018-Feb-19 19:30N 37°48' W 122°24'0 0.0
2018-Feb-19 19:00N 37°48' W 122°24'0 0.0
2018-Feb-19 18:30N 37°48' W 122°24'0 0.0
2018-Feb-19 18:01N 37°48' W 122°24'0 0.0
2018-Feb-19 17:31N 37°48' W 122°24'0 0.0
2018-Feb-19 17:00N 37°48' W 122°24'0 0.0
2018-Feb-19 16:31N 37°48' W 122°24'0 0.0
2018-Feb-19 16:01N 37°48' W 122°24'1 1.2
2018-Feb-19 15:30N 37°49' W 122°24'1 1.4
2018-Feb-19 14:56N 37°49' W 122°25'1 2.9
2018-Feb-19 14:31N 37°48' W 122°24'0 0.0
2018-Feb-19 14:01N 37°48' W 122°24'0 0.0
2018-Feb-19 13:30N 37°48' W 122°24'0 0.0
2018-Feb-19 13:01N 37°48' W 122°24'0 0.0
2018-Feb-19 12:31N 37°48' W 122°24'0 0.0
2018-Feb-19 12:01N 37°48' W 122°24'0 0.0
2018-Feb-19 11:31N 37°48' W 122°24'0 0.0
2018-Feb-19 11:00N 37°48' W 122°24'0 0.0
2018-Feb-19 10:30N 37°48' W 122°24'0 0.0
2018-Feb-19 10:00N 37°48' W 122°24'0 0.0
2018-Feb-19 09:30N 37°48' W 122°24'0 0.0
2018-Feb-19 09:00N 37°48' W 122°24'0 0.0
2018-Feb-19 08:30N 37°48' W 122°24'0 0.0
2018-Feb-19 08:00N 37°48' W 122°24'0 0.0
2018-Feb-19 07:31N 37°48' W 122°24'0 0.0
2018-Feb-19 07:00N 37°48' W 122°24'0 0.0
2018-Feb-19 06:31N 37°48' W 122°24'2 3.6
2018-Feb-19 06:00N 37°48' W 122°21'3 6.8
2018-Feb-19 05:31N 37°49' W 122°26'2 3.7
2018-Feb-19 05:00N 37°48' W 122°24'0 0.0
2018-Feb-19 04:30N 37°48' W 122°24'1 1.4
2018-Feb-19 04:00N 37°48' W 122°23'0 0.6
2018-Feb-19 03:31N 37°48' W 122°23'0 0.8
2018-Feb-19 03:00N 37°48' W 122°24'3 6.5
2018-Feb-19 02:30N 37°46' W 122°20'714.1
2018-Feb-19 02:00N 37°49' W 122°28'815.2
2018-Feb-19 01:30N 37°48' W 122°19'4 7.5
2018-Feb-19 01:00N 37°48' W 122°24'0 0.0
2018-Feb-19 00:30N 37°48' W 122°24'0 0.0
2018-Feb-19 00:00N 37°48' W 122°24'0 0.0
2018-Feb-18 23:30N 37°48' W 122°24'0 0.0
2018-Feb-18 23:00N 37°48' W 122°24'0 0.0
2018-Feb-18 22:31N 37°48' W 122°24'0 0.0
2018-Feb-18 22:00N 37°48' W 122°24'0 0.0
2018-Feb-18 21:30N 37°48' W 122°24'0 0.0
2018-Feb-18 21:00N 37°48' W 122°24'0 0.0
2018-Feb-18 20:31N 37°48' W 122°24'0 0.0
2018-Feb-18 20:00N 37°48' W 122°24'1 2.6
2018-Feb-18 19:31N 37°49' W 122°23'1 2.5
2018-Feb-18 19:00N 37°48' W 122°24'0 0.0
2018-Feb-18 18:31N 37°48' W 122°24'0 0.0
2018-Feb-18 18:01N 37°48' W 122°24'0 0.0
2018-Feb-18 17:31N 37°48' W 122°24'0 0.0
2018-Feb-18 17:01N 37°48' W 122°24'0 0.0
2018-Feb-18 16:31N 37°48' W 122°24'0 0.0
2018-Feb-18 16:01N 37°48' W 122°24'0 0.0
2018-Feb-18 15:30N 37°48' W 122°24'0 0.0
2018-Feb-18 15:00N 37°48' W 122°24'3 5.5
2018-Feb-18 14:31N 37°46' W 122°21'1 1.4
2018-Feb-18 14:00N 37°47' W 122°22'1 2.8
2018-Feb-18 13:31N 37°48' W 122°22'2 3.3
2018-Feb-18 13:00N 37°49' W 122°24'4 7.5
2018-Feb-18 12:31N 37°48' W 122°19'714.0
2018-Feb-18 12:00N 37°49' W 122°28'1 2.5
2018-Feb-18 11:30N 37°49' W 122°27'2 4.8
2018-Feb-18 11:00N 37°48' W 122°24'0 0.0
2018-Feb-18 10:30N 37°48' W 122°24'0 0.0
2018-Feb-18 10:00N 37°48' W 122°24'0 0.0
2018-Feb-18 09:30N 37°48' W 122°24'3 6.9
2018-Feb-18 09:00N 37°45' W 122°22'3 6.9
2018-Feb-18 08:30N 37°48' W 122°24'0 0.0
2018-Feb-18 08:00N 37°48' W 122°24'0 0.0
2018-Feb-18 07:30N 37°48' W 122°24'0 0.0
2018-Feb-18 07:00N 37°48' W 122°24'0 0.0
2018-Feb-18 06:30N 37°48' W 122°24'0 0.0
2018-Feb-18 06:00N 37°48' W 122°24'0 0.0
2018-Feb-18 05:30N 37°48' W 122°24'0 0.0
2018-Feb-18 05:00N 37°48' W 122°24'3 6.0
2018-Feb-18 04:31N 37°46' W 122°21'3 6.0
2018-Feb-18 04:00N 37°48' W 122°24'1 2.4
2018-Feb-18 03:30N 37°49' W 122°24'1019.4
2018-Feb-18 03:00N 37°46' W 122°36'1020.2
2018-Feb-18 02:31N 37°48' W 122°24'0 0.4
2018-Feb-18 02:01N 37°48' W 122°24'0 0.0
2018-Feb-18 01:31N 37°48' W 122°24'0 0.0
2018-Feb-18 01:00N 37°48' W 122°24'0 0.0
2018-Feb-18 00:30N 37°48' W 122°24'0 0.0
2018-Feb-18 00:00N 37°48' W 122°24'0 0.0
2018-Feb-17 23:30N 37°48' W 122°24'3 6.0
2018-Feb-17 23:00N 37°46' W 122°21'3 6.0
2018-Feb-17 22:30N 37°48' W 122°24'0 0.0
2018-Feb-17 22:00N 37°48' W 122°24'0 0.0
2018-Feb-17 21:30N 37°48' W 122°24'0 0.0
2018-Feb-17 21:00N 37°48' W 122°24'0 0.0
2018-Feb-17 20:30N 37°48' W 122°24'0 0.0
2018-Feb-17 20:00N 37°48' W 122°24'0 0.0
2018-Feb-17 19:30N 37°48' W 122°24'0 0.0
2018-Feb-17 19:00N 37°48' W 122°24'0 0.0
2018-Feb-17 18:30N 37°48' W 122°24'5 9.9
2018-Feb-17 18:00N 37°48' W 122°18'611.5
2018-Feb-17 17:30N 37°49' W 122°25'0 1.0
2018-Feb-17 17:00N 37°49' W 122°25'5 9.1
2018-Feb-17 16:31N 37°48' W 122°20'3 6.6
2018-Feb-17 16:01N 37°48' W 122°24'3 5.5
2018-Feb-17 15:31N 37°46' W 122°21'3 5.5
2018-Feb-17 15:00N 37°48' W 122°24'0 0.0
2018-Feb-17 14:30N 37°48' W 122°24'1 2.2
2018-Feb-17 14:00N 37°48' W 122°22'4 7.9
2018-Feb-17 13:30N 37°49' W 122°27'2 4.3
2018-Feb-17 13:00N 37°49' W 122°25'4 8.4
2018-Feb-17 12:31N 37°48' W 122°20'2 3.3
2018-Feb-17 12:00N 37°48' W 122°22'510.1
2018-Feb-17 11:30N 37°49' W 122°28'3 6.9
2018-Feb-17 11:00N 37°48' W 122°24'1 2.7
2018-Feb-17 10:31N 37°48' W 122°22'4 8.8
2018-Feb-17 10:01N 37°44' W 122°20'5 9.8
2018-Feb-17 09:31N 37°48' W 122°24'0 0.0
2018-Feb-17 09:00N 37°48' W 122°24'0 0.0
2018-Feb-17 08:30N 37°48' W 122°24'0 0.0
2018-Feb-17 08:00N 37°48' W 122°24'4 7.2
2018-Feb-17 07:30N 37°45' W 122°22'0 0.4
2018-Feb-17 07:00N 37°45' W 122°22'2 3.5
2018-Feb-17 06:31N 37°46' W 122°22'2 4.0
2018-Feb-17 06:01N 37°48' W 122°23'3 5.8
2018-Feb-17 05:30N 37°48' W 122°20'3 6.7
2018-Feb-17 05:00N 37°48' W 122°24'0 0.0
2018-Feb-17 04:30N 37°48' W 122°24'0 0.0
2018-Feb-17 04:00N 37°48' W 122°24'0 0.0
2018-Feb-17 03:30N 37°48' W 122°24'0 0.0
2018-Feb-17 02:59N 37°48' W 122°24'0 0.0
2018-Feb-17 02:30N 37°48' W 122°24'0 0.0
2018-Feb-17 01:59N 37°48' W 122°24'0 0.0
2018-Feb-17 01:31N 37°48' W 122°24'0 0.0
2018-Feb-17 01:00N 37°48' W 122°24'0 0.0
2018-Feb-17 00:30N 37°48' W 122°24'3 5.7
2018-Feb-17 00:01N 37°47' W 122°21'3 5.6
2018-Feb-16 23:30N 37°48' W 122°24'0 0.0
2018-Feb-16 23:00N 37°48' W 122°24'4 7.2
2018-Feb-16 22:30N 37°46' W 122°20'4 7.2
2018-Feb-16 22:01N 37°48' W 122°24'0 0.0
2018-Feb-16 21:30N 37°48' W 122°24'0 0.7
2018-Feb-16 21:00N 37°48' W 122°23'0 0.7
2018-Feb-16 20:30N 37°48' W 122°24'0 0.0
2018-Feb-16 20:00N 37°48' W 122°24'0 0.0
2018-Feb-16 19:30N 37°48' W 122°24'0 0.0
2018-Feb-16 19:00N 37°48' W 122°24'0 0.0
2018-Feb-16 18:30N 37°48' W 122°24'0 0.0
2018-Feb-16 18:00N 37°48' W 122°24'0 0.0
2018-Feb-16 17:30N 37°48' W 122°24'0 0.0
2018-Feb-16 17:00N 37°48' W 122°24'0 0.0
2018-Feb-16 16:30N 37°48' W 122°24'0 0.0
2018-Feb-16 16:00N 37°48' W 122°24'0 0.0
2018-Feb-16 15:30N 37°48' W 122°24'0 0.0
2018-Feb-16 15:00N 37°48' W 122°24'5 9.4
2018-Feb-16 14:30N 37°44' W 122°20'4 7.5
2018-Feb-16 14:00N 37°48' W 122°19'4 8.2
2018-Feb-16 13:30N 37°48' W 122°24'0 0.0
2018-Feb-16 13:01N 37°48' W 122°24'815.1
2018-Feb-16 12:31N 37°47' W 122°33'1 2.1
2018-Feb-16 12:01N 37°47' W 122°34'916.9
2018-Feb-16 11:30N 37°48' W 122°24'0 0.0
2018-Feb-16 11:00N 37°48' W 122°24'0 0.0
2018-Feb-16 10:30N 37°48' W 122°24'0 0.0
2018-Feb-16 10:00N 37°48' W 122°24'0 0.0
2018-Feb-16 09:30N 37°48' W 122°24'0 0.0
2018-Feb-16 09:00N 37°48' W 122°24'0 0.0
2018-Feb-16 08:30N 37°48' W 122°24'0 0.0
2018-Feb-16 08:01N 37°48' W 122°24'1 2.9
2018-Feb-16 07:31N 37°49' W 122°25'2 4.1
2018-Feb-16 07:00N 37°49' W 122°28'3 6.4
2018-Feb-16 06:30N 37°48' W 122°24'0 0.0
2018-Feb-16 06:00N 37°48' W 122°24'0 0.0
2018-Feb-16 05:30N 37°48' W 122°24'0 0.0
2018-Feb-16 05:00N 37°48' W 122°24'0 0.3
2018-Feb-16 04:30N 37°48' W 122°24'1 1.8
2018-Feb-16 04:00N 37°49' W 122°24'4 8.5
2018-Feb-16 03:31N 37°46' W 122°21'3 6.8
2018-Feb-16 03:00N 37°48' W 122°24'0 0.0
2018-Feb-16 02:30N 37°48' W 122°24'0 0.0
2018-Feb-16 02:00N 37°48' W 122°24'0 0.0
2018-Feb-16 01:30N 37°48' W 122°24'0 0.0
2018-Feb-16 01:00N 37°48' W 122°24'0 0.0
2018-Feb-16 00:30N 37°48' W 122°24'0 0.0
2018-Feb-16 00:01N 37°48' W 122°24'4 8.9
2018-Feb-15 23:30N 37°44' W 122°20'3 5.3
2018-Feb-15 23:01N 37°47' W 122°22'2 4.4
2018-Feb-15 22:30N 37°49' W 122°23'1 1.5
2018-Feb-15 22:00N 37°48' W 122°24'0 0.0
2018-Feb-15 21:30N 37°48' W 122°24'0 0.0
2018-Feb-15 21:00N 37°48' W 122°24'0 0.0
2018-Feb-15 20:30N 37°48' W 122°24'0 0.0
2018-Feb-15 20:00N 37°48' W 122°24'0 0.0
2018-Feb-15 19:30N 37°48' W 122°24'1 2.2
2018-Feb-15 19:00N 37°48' W 122°22'1 2.2
2018-Feb-15 18:30N 37°48' W 122°24'0 0.0
2018-Feb-15 18:00N 37°48' W 122°24'1 2.4
2018-Feb-15 17:30N 37°49' W 122°25'1 2.5
2018-Feb-15 17:00N 37°48' W 122°24'0 0.0
2018-Feb-15 16:30N 37°48' W 122°24'0 0.0
2018-Feb-15 16:00N 37°48' W 122°24'0 0.0
2018-Feb-15 15:30N 37°48' W 122°24'0 0.0
2018-Feb-15 15:00N 37°48' W 122°24'0 0.0
2018-Feb-15 14:30N 37°48' W 122°24'0 0.0
2018-Feb-15 14:00N 37°48' W 122°24'611.1
2018-Feb-15 13:30N 37°44' W 122°20'611.6
2018-Feb-15 13:00N 37°48' W 122°24'1 1.6
2018-Feb-15 12:30N 37°49' W 122°24'2 3.3
2018-Feb-15 12:00N 37°48' W 122°23'2 4.3
2018-Feb-15 11:31N 37°46' W 122°21'510.4
2018-Feb-15 11:00N 37°49' W 122°27'3 5.3
2018-Feb-15 10:31N 37°48' W 122°24'0 0.0
2018-Feb-15 10:00N 37°48' W 122°24'0 0.0
2018-Feb-15 09:31N 37°48' W 122°24'3 6.4
2018-Feb-15 09:01N 37°48' W 122°20'3 5.6
2018-Feb-15 08:30N 37°48' W 122°23'0 0.8
2018-Feb-15 08:00N 37°48' W 122°24'0 0.0
2018-Feb-15 07:29N 37°48' W 122°24'0 0.0
2018-Feb-15 07:00N 37°48' W 122°24'0 0.0
2018-Feb-15 06:30N 37°48' W 122°24'2 5.0
2018-Feb-15 06:01N 37°50' W 122°25'2 4.9
2018-Feb-15 05:30N 37°48' W 122°24'0 0.0
2018-Feb-15 05:00N 37°48' W 122°24'0 0.0
2018-Feb-15 04:30N 37°48' W 122°24'3 5.6
2018-Feb-15 04:00N 37°49' W 122°20'1 1.3
2018-Feb-15 03:30N 37°49' W 122°19'3 7.0
2018-Feb-15 03:01N 37°45' W 122°20'4 8.0
2018-Feb-15 02:30N 37°48' W 122°24'0 0.0
2018-Feb-15 02:00N 37°48' W 122°24'0 1.0
2018-Feb-15 01:30N 37°48' W 122°23'3 6.4
2018-Feb-15 01:01N 37°48' W 122°19'4 7.0
2018-Feb-15 00:30N 37°48' W 122°24'0 0.0
2018-Feb-15 00:00N 37°48' W 122°24'3 6.3
2018-Feb-14 23:30N 37°45' W 122°23'3 6.2
2018-Feb-14 23:00N 37°48' W 122°24'0 0.0
2018-Feb-14 22:30N 37°48' W 122°24'1114.6
2018-Feb-14 21:45N 37°45' W 122°37'512.9
2018-Feb-14 21:22N 37°48' W 122°32'718.5
2018-Feb-14 21:00N 37°48' W 122°24'0 0.0
2018-Feb-14 20:30N 37°48' W 122°24'0 0.0
2018-Feb-14 20:00N 37°48' W 122°24'0 0.0
2018-Feb-14 19:31N 37°48' W 122°24'0 0.0
2018-Feb-14 19:00N 37°48' W 122°24'0 0.0
2018-Feb-14 18:30N 37°48' W 122°24'1 2.7
2018-Feb-14 18:00N 37°49' W 122°25'0 0.3
2018-Feb-14 17:30N 37°49' W 122°25'4 8.1
2018-Feb-14 17:00N 37°49' W 122°20'2 4.0
2018-Feb-14 16:31N 37°48' W 122°22'1 2.5
2018-Feb-14 16:00N 37°48' W 122°24'1 1.6
2018-Feb-14 15:30N 37°48' W 122°23'4 7.5
2018-Feb-14 15:00N 37°48' W 122°18'713.8
2018-Feb-14 14:29N 37°49' W 122°27'3 6.1
2018-Feb-14 14:00N 37°48' W 122°24'2 4.6
2018-Feb-14 13:31N 37°47' W 122°21'611.0
2018-Feb-14 13:01N 37°49' W 122°28'3 6.4
2018-Feb-14 12:30N 37°48' W 122°24'0 0.0
2018-Feb-14 12:00N 37°48' W 122°24'611.6
2018-Feb-14 11:30N 37°48' W 122°31'612.9
2018-Feb-14 11:00N 37°46' W 122°39'1224.3
2018-Feb-14 10:31N 37°49' W 122°24'3 5.4
2018-Feb-14 10:00N 37°47' W 122°21'2 4.3
2018-Feb-14 09:30N 37°48' W 122°24'0 0.0
2018-Feb-14 09:00N 37°48' W 122°24'0 0.0
2018-Feb-14 08:30N 37°48' W 122°24'0 0.0
2018-Feb-14 08:00N 37°48' W 122°24'0 0.0
2018-Feb-14 07:30N 37°48' W 122°24'0 0.0
2018-Feb-14 07:00N 37°48' W 122°24'0 0.0
2018-Feb-14 06:30N 37°48' W 122°24'0 0.0
2018-Feb-14 06:00N 37°48' W 122°24'3 5.3
2018-Feb-14 05:30N 37°48' W 122°20'0 0.3
2018-Feb-14 05:01N 37°48' W 122°20'2 4.5
2018-Feb-14 04:30N 37°47' W 122°23'2 3.4
2018-Feb-14 04:00N 37°48' W 122°24'0 0.0
2018-Feb-14 03:31N 37°48' W 122°24'0 0.0
2018-Feb-14 03:00N 37°48' W 122°24'3 6.1
2018-Feb-14 02:31N 37°47' W 122°21'0 0.6
2018-Feb-14 02:01N 37°46' W 122°21'3 5.0
2018-Feb-14 01:30N 37°49' W 122°20'0 0.5
2018-Feb-14 01:00N 37°49' W 122°19'1 2.9
2018-Feb-14 00:30N 37°48' W 122°21'2 4.2
2018-Feb-14 00:00N 37°48' W 122°24'0 0.0
2018-Feb-13 23:31N 37°48' W 122°24'0 0.0
2018-Feb-13 23:00N 37°48' W 122°24'0 0.0
2018-Feb-13 22:30N 37°48' W 122°24'0 0.0
2018-Feb-13 22:00N 37°48' W 122°24'0 0.0
2018-Feb-13 21:31N 37°48' W 122°24'0 0.0
2018-Feb-13 21:01N 37°48' W 122°24'0 0.0
2018-Feb-13 20:30N 37°48' W 122°24'0 0.0
2018-Feb-13 20:01N 37°48' W 122°24'0 0.0
2018-Feb-13 19:31N 37°48' W 122°24'0 0.0
2018-Feb-13 19:00N 37°48' W 122°24'0 0.0
2018-Feb-13 18:30N 37°48' W 122°24'0 0.0
2018-Feb-13 18:00N 37°48' W 122°24'0 0.0
2018-Feb-13 17:30N 37°48' W 122°24'1 2.2
2018-Feb-13 16:56N 37°49' W 122°25'410.7
2018-Feb-13 16:31N 37°48' W 122°20'612.7
2018-Feb-13 16:00N 37°50' W 122°27'3 7.1
2018-Feb-13 15:30N 37°48' W 122°24'0 0.0
2018-Feb-13 15:00N 37°48' W 122°24'0 0.0
2018-Feb-13 14:30N 37°48' W 122°24'0 0.0
2018-Feb-13 14:00N 37°48' W 122°24'0 0.0
2018-Feb-13 13:30N 37°48' W 122°24'2 3.2
2018-Feb-13 13:00N 37°47' W 122°22'2 3.5
2018-Feb-13 12:30N 37°46' W 122°20'2 3.7
2018-Feb-13 12:00N 37°48' W 122°20'2 3.1
2018-Feb-13 11:30N 37°47' W 122°21'2 3.2
2018-Feb-13 11:00N 37°48' W 122°22'3 6.6
2018-Feb-13 10:30N 37°49' W 122°26'2 3.9
2018-Feb-13 10:00N 37°48' W 122°24'0 0.0
2018-Feb-13 09:30N 37°48' W 122°24'4 8.5
2018-Feb-13 09:00N 37°48' W 122°18'4 8.5
2018-Feb-13 08:30N 37°48' W 122°24'0 0.0
2018-Feb-13 08:00N 37°48' W 122°24'0 0.0
2018-Feb-13 07:30N 37°48' W 122°24'2 4.7
2018-Feb-13 07:00N 37°47' W 122°21'611.8
2018-Feb-13 06:30N 37°49' W 122°28'815.1
2018-Feb-13 06:00N 37°46' W 122°37'1019.4
2018-Feb-13 05:31N 37°49' W 122°26'4 8.4
2018-Feb-13 05:01N 37°48' W 122°21'1 1.5
2018-Feb-13 04:30N 37°48' W 122°21'2 3.6
2018-Feb-13 04:00N 37°48' W 122°24'0 0.0
2018-Feb-13 03:30N 37°48' W 122°24'0 0.0
2018-Feb-13 03:00N 37°48' W 122°24'1 1.7
2018-Feb-13 02:30N 37°48' W 122°23'1 1.2
2018-Feb-13 02:00N 37°48' W 122°23'1 1.4
2018-Feb-13 01:30N 37°48' W 122°24'3 6.0
2018-Feb-13 01:00N 37°46' W 122°21'3 5.3
2018-Feb-13 00:31N 37°48' W 122°23'1 1.5
2018-Feb-13 00:00N 37°48' W 122°24'3 5.4
2018-Feb-12 23:31N 37°47' W 122°21'3 5.4
2018-Feb-12 23:01N 37°48' W 122°24'0 0.2
2018-Feb-12 22:30N 37°48' W 122°24'0 0.0
2018-Feb-12 22:01N 37°48' W 122°24'0 0.0
2018-Feb-12 21:31N 37°48' W 122°24'0 0.0
2018-Feb-12 21:01N 37°48' W 122°24'0 0.0
2018-Feb-12 20:31N 37°48' W 122°24'0 0.0
2018-Feb-12 20:01N 37°48' W 122°24'0 0.0
2018-Feb-12 19:30N 37°48' W 122°24'0 0.0
2018-Feb-12 19:01N 37°48' W 122°24'0 0.0
2018-Feb-12 18:31N 37°48' W 122°24'0 0.0
2018-Feb-12 18:00N 37°48' W 122°24'0 0.0
2018-Feb-12 17:30N 37°48' W 122°24'0 0.0
2018-Feb-12 17:00N 37°48' W 122°24'0 0.0
2018-Feb-12 16:31N 37°48' W 122°24'0 0.1
2018-Feb-12 16:00N 37°48' W 122°24'1 2.3
2018-Feb-12 15:29N 37°49' W 122°25'510.1
2018-Feb-12 15:00N 37°48' W 122°19'4 7.1
2018-Feb-12 14:30N 37°48' W 122°24'0 0.0
2018-Feb-12 14:01N 37°48' W 122°24'3 5.9
2018-Feb-12 13:31N 37°49' W 122°20'2 4.5
2018-Feb-12 13:00N 37°47' W 122°22'3 6.2
2018-Feb-12 12:30N 37°49' W 122°26'4 8.3
2018-Feb-12 12:00N 37°48' W 122°20'3 5.2
2018-Feb-12 11:30N 37°48' W 122°24'0 0.0
2018-Feb-12 11:00N 37°48' W 122°24'4 8.6
2018-Feb-12 10:30N 37°44' W 122°21'4 8.6
2018-Feb-12 10:00N 37°48' W 122°24'0 0.0
2018-Feb-12 09:30N 37°48' W 122°24'0 0.0
2018-Feb-12 09:00N 37°48' W 122°24'3 6.5
2018-Feb-12 08:30N 37°46' W 122°21'3 6.0
2018-Feb-12 08:01N 37°48' W 122°23'4 7.2
2018-Feb-12 07:30N 37°46' W 122°20'4 7.7
2018-Feb-12 07:00N 37°48' W 122°24'0 0.0
2018-Feb-12 06:30N 37°48' W 122°24'0 0.0
2018-Feb-12 06:00N 37°48' W 122°24'0 0.0
2018-Feb-12 05:30N 37°48' W 122°24'0 0.0
2018-Feb-12 05:00N 37°48' W 122°24'3 5.8
2018-Feb-12 04:30N 37°48' W 122°20'3 6.1
2018-Feb-12 04:00N 37°49' W 122°24'1 1.0
2018-Feb-12 03:30N 37°48' W 122°24'0 0.0
2018-Feb-12 03:00N 37°48' W 122°24'2 4.3
2018-Feb-12 02:30N 37°48' W 122°21'3 7.1
2018-Feb-12 02:00N 37°49' W 122°25'2 3.4
2018-Feb-12 01:30N 37°48' W 122°24'0 0.0
2018-Feb-12 01:00N 37°48' W 122°24'0 0.0
2018-Feb-12 00:30N 37°48' W 122°24'0 0.0
2018-Feb-12 00:00N 37°48' W 122°24'0 0.0
2018-Feb-11 23:30N 37°48' W 122°24'0 0.3
2018-Feb-11 23:01N 37°48' W 122°24'4 7.2
2018-Feb-11 22:30N 37°46' W 122°20'1 1.9
2018-Feb-11 22:00N 37°45' W 122°21'1 2.7
2018-Feb-11 21:30N 37°46' W 122°22'611.8
2018-Feb-11 21:00N 37°49' W 122°28'2 3.0
2018-Feb-11 20:14N 37°48' W 122°31'522.0
2018-Feb-11 20:00N 37°49' W 122°25'2 5.0
2018-Feb-11 19:31N 37°48' W 122°22'1 2.1
2018-Feb-11 19:01N 37°48' W 122°24'3 5.7
2018-Feb-11 18:30N 37°48' W 122°20'3 5.8
2018-Feb-11 18:00N 37°48' W 122°24'0 0.0
2018-Feb-11 17:30N 37°48' W 122°24'0 0.1
2018-Feb-11 17:00N 37°48' W 122°24'0 0.1
2018-Feb-11 16:30N 37°48' W 122°24'0 0.0
2018-Feb-11 16:00N 37°48' W 122°24'0 0.0
2018-Feb-11 15:30N 37°48' W 122°24'4 7.7
2018-Feb-11 15:00N 37°49' W 122°28'4 7.7
2018-Feb-11 14:30N 37°48' W 122°24'1 2.3
2018-Feb-11 14:00N 37°48' W 122°22'2 4.3
2018-Feb-11 13:30N 37°48' W 122°20'2 4.3
2018-Feb-11 13:00N 37°46' W 122°21'4 7.0
2018-Feb-11 12:30N 37°48' W 122°24'2 3.4
2018-Feb-11 12:00N 37°49' W 122°26'0 0.5
2018-Feb-11 11:31N 37°49' W 122°26'1 2.1
2018-Feb-11 11:00N 37°49' W 122°27'510.9
2018-Feb-11 10:30N 37°49' W 122°20'3 5.8
2018-Feb-11 10:00N 37°48' W 122°24'0 0.0
2018-Feb-11 09:30N 37°48' W 122°24'0 0.0
2018-Feb-11 09:00N 37°48' W 122°24'0 0.0
2018-Feb-11 08:30N 37°48' W 122°24'0 0.0
2018-Feb-11 08:00N 37°48' W 122°24'0 0.0
2018-Feb-11 07:30N 37°48' W 122°24'0 0.0
2018-Feb-11 07:00N 37°48' W 122°24'0 0.0
2018-Feb-11 06:30N 37°48' W 122°24'0 0.0
2018-Feb-11 06:00N 37°48' W 122°24'0 0.0
2018-Feb-11 05:30N 37°48' W 122°24'0 0.0
2018-Feb-11 05:00N 37°48' W 122°24'0 0.0
2018-Feb-11 04:31N 37°48' W 122°24'0 0.0
2018-Feb-11 04:00N 37°48' W 122°24'0 0.0
2018-Feb-11 03:30N 37°48' W 122°24'0 0.0
2018-Feb-11 03:00N 37°48' W 122°24'0 0.0
2018-Feb-11 02:30N 37°48' W 122°24'3 5.8
2018-Feb-11 02:00N 37°49' W 122°20'3 6.0
2018-Feb-11 01:31N 37°46' W 122°21'3 6.7
2018-Feb-11 01:00N 37°48' W 122°24'1 1.3
2018-Feb-11 00:30N 37°49' W 122°24'1 1.3
2018-Feb-11 00:00N 37°48' W 122°24'0 0.0
2018-Feb-10 23:31N 37°48' W 122°24'0 0.0
2018-Feb-10 23:01N 37°48' W 122°24'0 0.0
2018-Feb-10 22:31N 37°48' W 122°24'3 5.9
2018-Feb-10 22:01N 37°46' W 122°21'3 5.9
2018-Feb-10 21:30N 37°48' W 122°24'0 0.0
2018-Feb-10 21:00N 37°48' W 122°24'0 0.0
2018-Feb-10 20:30N 37°48' W 122°24'0 0.1
2018-Feb-10 20:01N 37°48' W 122°24'2 4.6
2018-Feb-10 19:31N 37°47' W 122°21'2 4.5
2018-Feb-10 19:00N 37°48' W 122°24'0 0.0
2018-Feb-10 18:30N 37°48' W 122°24'1 2.6
2018-Feb-10 18:00N 37°49' W 122°25'0 0.2
2018-Feb-10 17:31N 37°49' W 122°25'  
Track history (hours):
 
Tides and Currents Weather Stations Pressure Air Temp Water Temp Dewpoint Dewpoint Depression Visibility Wind Speed Wind Dir Waves Ship Positions

P/v Golden Gate

Owner: San Francisco Bar Pilots Benevolent and Protective, San Francisco, CA. More information available from US FCC via Universal Licensing System and Coast Guard Vessel Documentation Center.

Last reported at 2018-Feb-20 17:30 UTC. Time now 2018-Feb-20 17:42 UTC.
Position N 37°48' W 122°24'.

Length 21 m.

Type: Pilot. MMSI: 367370010.

Date/timePositionNaut miles runAvg speedWind from/ knotsBaromVisibWave heightAir tempDewpointWater temp
2018-Feb-20 17:30N 37°48' W 122°24'0 0.0
2018-Feb-20 17:00N 37°48' W 122°24'0 0.0
2018-Feb-20 16:30N 37°48' W 122°24'0 0.0
2018-Feb-20 16:00N 37°48' W 122°24'0 0.0
2018-Feb-20 15:30N 37°48' W 122°24'0 0.0
2018-Feb-20 15:00N 37°48' W 122°24'0 0.0
2018-Feb-20 14:30N 37°48' W 122°24'0 0.0
2018-Feb-20 14:00N 37°48' W 122°24'4 8.1
2018-Feb-20 13:30N 37°48' W 122°19'4 7.9
2018-Feb-20 13:00N 37°48' W 122°24'0 0.0
2018-Feb-20 12:30N 37°48' W 122°24'0 0.0
2018-Feb-20 12:00N 37°48' W 122°24'0 0.0
2018-Feb-20 11:30N 37°48' W 122°24'0 0.0
2018-Feb-20 11:00N 37°48' W 122°24'3 5.8
2018-Feb-20 10:30N 37°49' W 122°20'2 3.1
2018-Feb-20 10:00N 37°47' W 122°20'3 5.6
2018-Feb-20 09:30N 37°48' W 122°24'0 0.0
2018-Feb-20 09:00N 37°48' W 122°24'0 0.0
2018-Feb-20 08:30N 37°48' W 122°24'0 0.0
2018-Feb-20 08:01N 37°48' W 122°24'0 0.0
2018-Feb-20 07:30N 37°48' W 122°24'2 4.9
2018-Feb-20 07:00N 37°48' W 122°21'2 5.0
2018-Feb-20 06:30N 37°46' W 122°21'0 0.9
2018-Feb-20 06:00N 37°46' W 122°22'2 4.8
2018-Feb-20 05:30N 37°48' W 122°24'0 0.0
2018-Feb-20 05:00N 37°48' W 122°24'0 0.0
2018-Feb-20 04:30N 37°48' W 122°24'0 0.0
2018-Feb-20 04:00N 37°48' W 122°24'0 0.0
2018-Feb-20 03:30N 37°48' W 122°24'0 0.0
2018-Feb-20 03:00N 37°48' W 122°24'4 8.6
2018-Feb-20 02:30N 37°49' W 122°29'3 5.2
2018-Feb-20 02:01N 37°49' W 122°26'5 9.3
2018-Feb-20 01:30N 37°49' W 122°20'3 5.9
2018-Feb-20 01:00N 37°48' W 122°24'0 0.0
2018-Feb-20 00:30N 37°48' W 122°24'0 0.0
2018-Feb-20 00:00N 37°48' W 122°24'0 0.0
2018-Feb-19 23:31N 37°48' W 122°24'0 0.0
2018-Feb-19 23:00N 37°48' W 122°24'0 0.0
2018-Feb-19 22:30N 37°48' W 122°24'0 0.3
2018-Feb-19 22:00N 37°48' W 122°24'1 1.6
2018-Feb-19 21:30N 37°48' W 122°23'5 9.5
2018-Feb-19 21:00N 37°43' W 122°21'510.6
2018-Feb-19 20:30N 37°48' W 122°24'0 0.1
2018-Feb-19 20:00N 37°48' W 122°24'0 0.0
2018-Feb-19 19:30N 37°48' W 122°24'0 0.0
2018-Feb-19 19:00N 37°48' W 122°24'0 0.0
2018-Feb-19 18:30N 37°48' W 122°24'0 0.0
2018-Feb-19 18:01N 37°48' W 122°24'0 0.0
2018-Feb-19 17:31N 37°48' W 122°24'0 0.0
2018-Feb-19 17:00N 37°48' W 122°24'0 0.0
2018-Feb-19 16:31N 37°48' W 122°24'0 0.0
2018-Feb-19 16:01N 37°48' W 122°24'1 1.2
2018-Feb-19 15:30N 37°49' W 122°24'1 1.4
2018-Feb-19 14:56N 37°49' W 122°25'1 2.9
2018-Feb-19 14:31N 37°48' W 122°24'0 0.0
2018-Feb-19 14:01N 37°48' W 122°24'0 0.0
2018-Feb-19 13:30N 37°48' W 122°24'0 0.0
2018-Feb-19 13:01N 37°48' W 122°24'0 0.0
2018-Feb-19 12:31N 37°48' W 122°24'0 0.0
2018-Feb-19 12:01N 37°48' W 122°24'0 0.0
2018-Feb-19 11:31N 37°48' W 122°24'0 0.0
2018-Feb-19 11:00N 37°48' W 122°24'0 0.0
2018-Feb-19 10:30N 37°48' W 122°24'0 0.0
2018-Feb-19 10:00N 37°48' W 122°24'0 0.0
2018-Feb-19 09:30N 37°48' W 122°24'0 0.0
2018-Feb-19 09:00N 37°48' W 122°24'0 0.0
2018-Feb-19 08:30N 37°48' W 122°24'0 0.0
2018-Feb-19 08:00N 37°48' W 122°24'0 0.0
2018-Feb-19 07:31N 37°48' W 122°24'0 0.0
2018-Feb-19 07:00N 37°48' W 122°24'0 0.0
2018-Feb-19 06:31N 37°48' W 122°24'2 3.6
2018-Feb-19 06:00N 37°48' W 122°21'3 6.8
2018-Feb-19 05:31N 37°49' W 122°26'2 3.7
2018-Feb-19 05:00N 37°48' W 122°24'0 0.0
2018-Feb-19 04:30N 37°48' W 122°24'1 1.4
2018-Feb-19 04:00N 37°48' W 122°23'0 0.6
2018-Feb-19 03:31N 37°48' W 122°23'0 0.8
2018-Feb-19 03:00N 37°48' W 122°24'3 6.5
2018-Feb-19 02:30N 37°46' W 122°20'714.1
2018-Feb-19 02:00N 37°49' W 122°28'815.2
2018-Feb-19 01:30N 37°48' W 122°19'4 7.5
2018-Feb-19 01:00N 37°48' W 122°24'0 0.0
2018-Feb-19 00:30N 37°48' W 122°24'0 0.0
2018-Feb-19 00:00N 37°48' W 122°24'0 0.0
2018-Feb-18 23:30N 37°48' W 122°24'0 0.0
2018-Feb-18 23:00N 37°48' W 122°24'0 0.0
2018-Feb-18 22:31N 37°48' W 122°24'0 0.0
2018-Feb-18 22:00N 37°48' W 122°24'0 0.0
2018-Feb-18 21:30N 37°48' W 122°24'0 0.0
2018-Feb-18 21:00N 37°48' W 122°24'0 0.0
2018-Feb-18 20:31N 37°48' W 122°24'0 0.0
2018-Feb-18 20:00N 37°48' W 122°24'1 2.6
2018-Feb-18 19:31N 37°49' W 122°23'1 2.5
2018-Feb-18 19:00N 37°48' W 122°24'0 0.0
2018-Feb-18 18:31N 37°48' W 122°24'0 0.0
2018-Feb-18 18:01N 37°48' W 122°24'0 0.0
2018-Feb-18 17:31N 37°48' W 122°24'0 0.0
2018-Feb-18 17:01N 37°48' W 122°24'0 0.0
2018-Feb-18 16:31N 37°48' W 122°24'0 0.0
2018-Feb-18 16:01N 37°48' W 122°24'0 0.0
2018-Feb-18 15:30N 37°48' W 122°24'0 0.0
2018-Feb-18 15:00N 37°48' W 122°24'3 5.5
2018-Feb-18 14:31N 37°46' W 122°21'1 1.4
2018-Feb-18 14:00N 37°47' W 122°22'1 2.8
2018-Feb-18 13:31N 37°48' W 122°22'2 3.3
2018-Feb-18 13:00N 37°49' W 122°24'4 7.5
2018-Feb-18 12:31N 37°48' W 122°19'714.0
2018-Feb-18 12:00N 37°49' W 122°28'1 2.5
2018-Feb-18 11:30N 37°49' W 122°27'2 4.8
2018-Feb-18 11:00N 37°48' W 122°24'0 0.0
2018-Feb-18 10:30N 37°48' W 122°24'0 0.0
2018-Feb-18 10:00N 37°48' W 122°24'0 0.0
2018-Feb-18 09:30N 37°48' W 122°24'3 6.9
2018-Feb-18 09:00N 37°45' W 122°22'3 6.9
2018-Feb-18 08:30N 37°48' W 122°24'0 0.0
2018-Feb-18 08:00N 37°48' W 122°24'0 0.0
2018-Feb-18 07:30N 37°48' W 122°24'0 0.0
2018-Feb-18 07:00N 37°48' W 122°24'0 0.0
2018-Feb-18 06:30N 37°48' W 122°24'0 0.0
2018-Feb-18 06:00N 37°48' W 122°24'0 0.0
2018-Feb-18 05:30N 37°48' W 122°24'0 0.0
2018-Feb-18 05:00N 37°48' W 122°24'3 6.0
2018-Feb-18 04:31N 37°46' W 122°21'3 6.0
2018-Feb-18 04:00N 37°48' W 122°24'1 2.4
2018-Feb-18 03:30N 37°49' W 122°24'1019.4
2018-Feb-18 03:00N 37°46' W 122°36'1020.2
2018-Feb-18 02:31N 37°48' W 122°24'0 0.4
2018-Feb-18 02:01N 37°48' W 122°24'0 0.0
2018-Feb-18 01:31N 37°48' W 122°24'0 0.0
2018-Feb-18 01:00N 37°48' W 122°24'0 0.0
2018-Feb-18 00:30N 37°48' W 122°24'0 0.0
2018-Feb-18 00:00N 37°48' W 122°24'0 0.0
2018-Feb-17 23:30N 37°48' W 122°24'3 6.0
2018-Feb-17 23:00N 37°46' W 122°21'3 6.0
2018-Feb-17 22:30N 37°48' W 122°24'0 0.0
2018-Feb-17 22:00N 37°48' W 122°24'0 0.0
2018-Feb-17 21:30N 37°48' W 122°24'0 0.0
2018-Feb-17 21:00N 37°48' W 122°24'0 0.0
2018-Feb-17 20:30N 37°48' W 122°24'0 0.0
2018-Feb-17 20:00N 37°48' W 122°24'0 0.0
2018-Feb-17 19:30N 37°48' W 122°24'0 0.0
2018-Feb-17 19:00N 37°48' W 122°24'0 0.0
2018-Feb-17 18:30N 37°48' W 122°24'5 9.9
2018-Feb-17 18:00N 37°48' W 122°18'611.5
2018-Feb-17 17:30N 37°49' W 122°25'0 1.0
2018-Feb-17 17:00N 37°49' W 122°25'5 9.1
2018-Feb-17 16:31N 37°48' W 122°20'3 6.6
2018-Feb-17 16:01N 37°48' W 122°24'3 5.5
2018-Feb-17 15:31N 37°46' W 122°21'3 5.5
2018-Feb-17 15:00N 37°48' W 122°24'0 0.0
2018-Feb-17 14:30N 37°48' W 122°24'1 2.2
2018-Feb-17 14:00N 37°48' W 122°22'4 7.9
2018-Feb-17 13:30N 37°49' W 122°27'2 4.3
2018-Feb-17 13:00N 37°49' W 122°25'4 8.4
2018-Feb-17 12:31N 37°48' W 122°20'2 3.3
2018-Feb-17 12:00N 37°48' W 122°22'510.1
2018-Feb-17 11:30N 37°49' W 122°28'3 6.9
2018-Feb-17 11:00N 37°48' W 122°24'1 2.7
2018-Feb-17 10:31N 37°48' W 122°22'4 8.8
2018-Feb-17 10:01N 37°44' W 122°20'5 9.8
2018-Feb-17 09:31N 37°48' W 122°24'0 0.0
2018-Feb-17 09:00N 37°48' W 122°24'0 0.0
2018-Feb-17 08:30N 37°48' W 122°24'0 0.0
2018-Feb-17 08:00N 37°48' W 122°24'4 7.2
2018-Feb-17 07:30N 37°45' W 122°22'0 0.4
2018-Feb-17 07:00N 37°45' W 122°22'2 3.5
2018-Feb-17 06:31N 37°46' W 122°22'2 4.0
2018-Feb-17 06:01N 37°48' W 122°23'3 5.8
2018-Feb-17 05:30N 37°48' W 122°20'3 6.7
2018-Feb-17 05:00N 37°48' W 122°24'0 0.0
2018-Feb-17 04:30N 37°48' W 122°24'0 0.0
2018-Feb-17 04:00N 37°48' W 122°24'0 0.0
2018-Feb-17 03:30N 37°48' W 122°24'0 0.0
2018-Feb-17 02:59N 37°48' W 122°24'0 0.0
2018-Feb-17 02:30N 37°48' W 122°24'0 0.0
2018-Feb-17 01:59N 37°48' W 122°24'0 0.0
2018-Feb-17 01:31N 37°48' W 122°24'0 0.0
2018-Feb-17 01:00N 37°48' W 122°24'0 0.0
2018-Feb-17 00:30N 37°48' W 122°24'3 5.7
2018-Feb-17 00:01N 37°47' W 122°21'3 5.6
2018-Feb-16 23:30N 37°48' W 122°24'0 0.0
2018-Feb-16 23:00N 37°48' W 122°24'4 7.2
2018-Feb-16 22:30N 37°46' W 122°20'4 7.2
2018-Feb-16 22:01N 37°48' W 122°24'0 0.0
2018-Feb-16 21:30N 37°48' W 122°24'0 0.7
2018-Feb-16 21:00N 37°48' W 122°23'0 0.7
2018-Feb-16 20:30N 37°48' W 122°24'0 0.0
2018-Feb-16 20:00N 37°48' W 122°24'0 0.0
2018-Feb-16 19:30N 37°48' W 122°24'0 0.0
2018-Feb-16 19:00N 37°48' W 122°24'0 0.0
2018-Feb-16 18:30N 37°48' W 122°24'0 0.0
2018-Feb-16 18:00N 37°48' W 122°24'0 0.0
2018-Feb-16 17:30N 37°48' W 122°24'0 0.0
2018-Feb-16 17:00N 37°48' W 122°24'0 0.0
2018-Feb-16 16:30N 37°48' W 122°24'0 0.0
2018-Feb-16 16:00N 37°48' W 122°24'0 0.0
2018-Feb-16 15:30N 37°48' W 122°24'0 0.0
2018-Feb-16 15:00N 37°48' W 122°24'5 9.4
2018-Feb-16 14:30N 37°44' W 122°20'4 7.5
2018-Feb-16 14:00N 37°48' W 122°19'4 8.2
2018-Feb-16 13:30N 37°48' W 122°24'0 0.0
2018-Feb-16 13:01N 37°48' W 122°24'815.1
2018-Feb-16 12:31N 37°47' W 122°33'1 2.1
2018-Feb-16 12:01N 37°47' W 122°34'916.9
2018-Feb-16 11:30N 37°48' W 122°24'0 0.0
2018-Feb-16 11:00N 37°48' W 122°24'0 0.0
2018-Feb-16 10:30N 37°48' W 122°24'0 0.0
2018-Feb-16 10:00N 37°48' W 122°24'0 0.0
2018-Feb-16 09:30N 37°48' W 122°24'0 0.0
2018-Feb-16 09:00N 37°48' W 122°24'0 0.0
2018-Feb-16 08:30N 37°48' W 122°24'0 0.0
2018-Feb-16 08:01N 37°48' W 122°24'1 2.9
2018-Feb-16 07:31N 37°49' W 122°25'2 4.1
2018-Feb-16 07:00N 37°49' W 122°28'3 6.4
2018-Feb-16 06:30N 37°48' W 122°24'0 0.0
2018-Feb-16 06:00N 37°48' W 122°24'0 0.0
2018-Feb-16 05:30N 37°48' W 122°24'0 0.0
2018-Feb-16 05:00N 37°48' W 122°24'0 0.3
2018-Feb-16 04:30N 37°48' W 122°24'1 1.8
2018-Feb-16 04:00N 37°49' W 122°24'4 8.5
2018-Feb-16 03:31N 37°46' W 122°21'3 6.8
2018-Feb-16 03:00N 37°48' W 122°24'0 0.0
2018-Feb-16 02:30N 37°48' W 122°24'0 0.0
2018-Feb-16 02:00N 37°48' W 122°24'0 0.0
2018-Feb-16 01:30N 37°48' W 122°24'0 0.0
2018-Feb-16 01:00N 37°48' W 122°24'0 0.0
2018-Feb-16 00:30N 37°48' W 122°24'0 0.0
2018-Feb-16 00:01N 37°48' W 122°24'4 8.9
2018-Feb-15 23:30N 37°44' W 122°20'3 5.3
2018-Feb-15 23:01N 37°47' W 122°22'2 4.4
2018-Feb-15 22:30N 37°49' W 122°23'1 1.5
2018-Feb-15 22:00N 37°48' W 122°24'0 0.0
2018-Feb-15 21:30N 37°48' W 122°24'0 0.0
2018-Feb-15 21:00N 37°48' W 122°24'0 0.0
2018-Feb-15 20:30N 37°48' W 122°24'0 0.0
2018-Feb-15 20:00N 37°48' W 122°24'0 0.0
2018-Feb-15 19:30N 37°48' W 122°24'1 2.2
2018-Feb-15 19:00N 37°48' W 122°22'1 2.2
2018-Feb-15 18:30N 37°48' W 122°24'0 0.0
2018-Feb-15 18:00N 37°48' W 122°24'1 2.4
2018-Feb-15 17:30N 37°49' W 122°25'1 2.5
2018-Feb-15 17:00N 37°48' W 122°24'0 0.0
2018-Feb-15 16:30N 37°48' W 122°24'0 0.0
2018-Feb-15 16:00N 37°48' W 122°24'0 0.0
2018-Feb-15 15:30N 37°48' W 122°24'0 0.0
2018-Feb-15 15:00N 37°48' W 122°24'0 0.0
2018-Feb-15 14:30N 37°48' W 122°24'0 0.0
2018-Feb-15 14:00N 37°48' W 122°24'611.1
2018-Feb-15 13:30N 37°44' W 122°20'611.6
2018-Feb-15 13:00N 37°48' W 122°24'1 1.6
2018-Feb-15 12:30N 37°49' W 122°24'2 3.3
2018-Feb-15 12:00N 37°48' W 122°23'2 4.3
2018-Feb-15 11:31N 37°46' W 122°21'510.4
2018-Feb-15 11:00N 37°49' W 122°27'3 5.3
2018-Feb-15 10:31N 37°48' W 122°24'0 0.0
2018-Feb-15 10:00N 37°48' W 122°24'0 0.0
2018-Feb-15 09:31N 37°48' W 122°24'3 6.4
2018-Feb-15 09:01N 37°48' W 122°20'3 5.6
2018-Feb-15 08:30N 37°48' W 122°23'0 0.8
2018-Feb-15 08:00N 37°48' W 122°24'0 0.0
2018-Feb-15 07:29N 37°48' W 122°24'0 0.0
2018-Feb-15 07:00N 37°48' W 122°24'0 0.0
2018-Feb-15 06:30N 37°48' W 122°24'2 5.0
2018-Feb-15 06:01N 37°50' W 122°25'2 4.9
2018-Feb-15 05:30N 37°48' W 122°24'0 0.0
2018-Feb-15 05:00N 37°48' W 122°24'0 0.0
2018-Feb-15 04:30N 37°48' W 122°24'3 5.6
2018-Feb-15 04:00N 37°49' W 122°20'1 1.3
2018-Feb-15 03:30N 37°49' W 122°19'3 7.0
2018-Feb-15 03:01N 37°45' W 122°20'4 8.0
2018-Feb-15 02:30N 37°48' W 122°24'0 0.0
2018-Feb-15 02:00N 37°48' W 122°24'0 1.0
2018-Feb-15 01:30N 37°48' W 122°23'3 6.4
2018-Feb-15 01:01N 37°48' W 122°19'4 7.0
2018-Feb-15 00:30N 37°48' W 122°24'0 0.0
2018-Feb-15 00:00N 37°48' W 122°24'3 6.3
2018-Feb-14 23:30N 37°45' W 122°23'3 6.2
2018-Feb-14 23:00N 37°48' W 122°24'0 0.0
2018-Feb-14 22:30N 37°48' W 122°24'1114.6
2018-Feb-14 21:45N 37°45' W 122°37'512.9
2018-Feb-14 21:22N 37°48' W 122°32'718.5
2018-Feb-14 21:00N 37°48' W 122°24'0 0.0
2018-Feb-14 20:30N 37°48' W 122°24'0 0.0
2018-Feb-14 20:00N 37°48' W 122°24'0 0.0
2018-Feb-14 19:31N 37°48' W 122°24'0 0.0
2018-Feb-14 19:00N 37°48' W 122°24'0 0.0
2018-Feb-14 18:30N 37°48' W 122°24'1 2.7
2018-Feb-14 18:00N 37°49' W 122°25'0 0.3
2018-Feb-14 17:30N 37°49' W 122°25'4 8.1
2018-Feb-14 17:00N 37°49' W 122°20'2 4.0
2018-Feb-14 16:31N 37°48' W 122°22'1 2.5
2018-Feb-14 16:00N 37°48' W 122°24'1 1.6
2018-Feb-14 15:30N 37°48' W 122°23'4 7.5
2018-Feb-14 15:00N 37°48' W 122°18'713.8
2018-Feb-14 14:29N 37°49' W 122°27'3 6.1
2018-Feb-14 14:00N 37°48' W 122°24'2 4.6
2018-Feb-14 13:31N 37°47' W 122°21'611.0
2018-Feb-14 13:01N 37°49' W 122°28'3 6.4
2018-Feb-14 12:30N 37°48' W 122°24'0 0.0
2018-Feb-14 12:00N 37°48' W 122°24'611.6
2018-Feb-14 11:30N 37°48' W 122°31'612.9
2018-Feb-14 11:00N 37°46' W 122°39'1224.3
2018-Feb-14 10:31N 37°49' W 122°24'3 5.4
2018-Feb-14 10:00N 37°47' W 122°21'2 4.3
2018-Feb-14 09:30N 37°48' W 122°24'0 0.0
2018-Feb-14 09:00N 37°48' W 122°24'0 0.0
2018-Feb-14 08:30N 37°48' W 122°24'0 0.0
2018-Feb-14 08:00N 37°48' W 122°24'0 0.0
2018-Feb-14 07:30N 37°48' W 122°24'0 0.0
2018-Feb-14 07:00N 37°48' W 122°24'0 0.0
2018-Feb-14 06:30N 37°48' W 122°24'0 0.0
2018-Feb-14 06:00N 37°48' W 122°24'3 5.3
2018-Feb-14 05:30N 37°48' W 122°20'0 0.3
2018-Feb-14 05:01N 37°48' W 122°20'2 4.5
2018-Feb-14 04:30N 37°47' W 122°23'2 3.4
2018-Feb-14 04:00N 37°48' W 122°24'0 0.0
2018-Feb-14 03:31N 37°48' W 122°24'0 0.0
2018-Feb-14 03:00N 37°48' W 122°24'3 6.1
2018-Feb-14 02:31N 37°47' W 122°21'0 0.6
2018-Feb-14 02:01N 37°46' W 122°21'3 5.0
2018-Feb-14 01:30N 37°49' W 122°20'0 0.5
2018-Feb-14 01:00N 37°49' W 122°19'1 2.9
2018-Feb-14 00:30N 37°48' W 122°21'2 4.2
2018-Feb-14 00:00N 37°48' W 122°24'0 0.0
2018-Feb-13 23:31N 37°48' W 122°24'0 0.0
2018-Feb-13 23:00N 37°48' W 122°24'0 0.0
2018-Feb-13 22:30N 37°48' W 122°24'0 0.0
2018-Feb-13 22:00N 37°48' W 122°24'0 0.0
2018-Feb-13 21:31N 37°48' W 122°24'0 0.0
2018-Feb-13 21:01N 37°48' W 122°24'0 0.0
2018-Feb-13 20:30N 37°48' W 122°24'0 0.0
2018-Feb-13 20:01N 37°48' W 122°24'0 0.0
2018-Feb-13 19:31N 37°48' W 122°24'0 0.0
2018-Feb-13 19:00N 37°48' W 122°24'0 0.0
2018-Feb-13 18:30N 37°48' W 122°24'0 0.0
2018-Feb-13 18:00N 37°48' W 122°24'0 0.0
2018-Feb-13 17:30N 37°48' W 122°24'1 2.2
2018-Feb-13 16:56N 37°49' W 122°25'410.7
2018-Feb-13 16:31N 37°48' W 122°20'612.7
2018-Feb-13 16:00N 37°50' W 122°27'3 7.1
2018-Feb-13 15:30N 37°48' W 122°24'0 0.0
2018-Feb-13 15:00N 37°48' W 122°24'0 0.0
2018-Feb-13 14:30N 37°48' W 122°24'0 0.0
2018-Feb-13 14:00N 37°48' W 122°24'0 0.0
2018-Feb-13 13:30N 37°48' W 122°24'2 3.2
2018-Feb-13 13:00N 37°47' W 122°22'2 3.5
2018-Feb-13 12:30N 37°46' W 122°20'2 3.7
2018-Feb-13 12:00N 37°48' W 122°20'2 3.1
2018-Feb-13 11:30N 37°47' W 122°21'2 3.2
2018-Feb-13 11:00N 37°48' W 122°22'3 6.6
2018-Feb-13 10:30N 37°49' W 122°26'2 3.9
2018-Feb-13 10:00N 37°48' W 122°24'0 0.0
2018-Feb-13 09:30N 37°48' W 122°24'4 8.5
2018-Feb-13 09:00N 37°48' W 122°18'4 8.5
2018-Feb-13 08:30N 37°48' W 122°24'0 0.0
2018-Feb-13 08:00N 37°48' W 122°24'0 0.0
2018-Feb-13 07:30N 37°48' W 122°24'2 4.7
2018-Feb-13 07:00N 37°47' W 122°21'611.8
2018-Feb-13 06:30N 37°49' W 122°28'815.1
2018-Feb-13 06:00N 37°46' W 122°37'1019.4
2018-Feb-13 05:31N 37°49' W 122°26'4 8.4
2018-Feb-13 05:01N 37°48' W 122°21'1 1.5
2018-Feb-13 04:30N 37°48' W 122°21'2 3.6
2018-Feb-13 04:00N 37°48' W 122°24'0 0.0
2018-Feb-13 03:30N 37°48' W 122°24'0 0.0
2018-Feb-13 03:00N 37°48' W 122°24'1 1.7
2018-Feb-13 02:30N 37°48' W 122°23'1 1.2
2018-Feb-13 02:00N 37°48' W 122°23'1 1.4
2018-Feb-13 01:30N 37°48' W 122°24'3 6.0
2018-Feb-13 01:00N 37°46' W 122°21'3 5.3
2018-Feb-13 00:31N 37°48' W 122°23'1 1.5
2018-Feb-13 00:00N 37°48' W 122°24'3 5.4
2018-Feb-12 23:31N 37°47' W 122°21'3 5.4
2018-Feb-12 23:01N 37°48' W 122°24'0 0.2
2018-Feb-12 22:30N 37°48' W 122°24'0 0.0
2018-Feb-12 22:01N 37°48' W 122°24'0 0.0
2018-Feb-12 21:31N 37°48' W 122°24'0 0.0
2018-Feb-12 21:01N 37°48' W 122°24'0 0.0
2018-Feb-12 20:31N 37°48' W 122°24'0 0.0
2018-Feb-12 20:01N 37°48' W 122°24'0 0.0
2018-Feb-12 19:30N 37°48' W 122°24'0 0.0
2018-Feb-12 19:01N 37°48' W 122°24'0 0.0
2018-Feb-12 18:31N 37°48' W 122°24'0 0.0
2018-Feb-12 18:00N 37°48' W 122°24'0 0.0
2018-Feb-12 17:30N 37°48' W 122°24'0 0.0
2018-Feb-12 17:00N 37°48' W 122°24'0 0.0
2018-Feb-12 16:31N 37°48' W 122°24'0 0.1
2018-Feb-12 16:00N 37°48' W 122°24'1 2.3
2018-Feb-12 15:29N 37°49' W 122°25'510.1
2018-Feb-12 15:00N 37°48' W 122°19'4 7.1
2018-Feb-12 14:30N 37°48' W 122°24'0 0.0
2018-Feb-12 14:01N 37°48' W 122°24'3 5.9
2018-Feb-12 13:31N 37°49' W 122°20'2 4.5
2018-Feb-12 13:00N 37°47' W 122°22'3 6.2
2018-Feb-12 12:30N 37°49' W 122°26'4 8.3
2018-Feb-12 12:00N 37°48' W 122°20'3 5.2
2018-Feb-12 11:30N 37°48' W 122°24'0 0.0
2018-Feb-12 11:00N 37°48' W 122°24'4 8.6
2018-Feb-12 10:30N 37°44' W 122°21'4 8.6
2018-Feb-12 10:00N 37°48' W 122°24'0 0.0
2018-Feb-12 09:30N 37°48' W 122°24'0 0.0
2018-Feb-12 09:00N 37°48' W 122°24'3 6.5
2018-Feb-12 08:30N 37°46' W 122°21'3 6.0
2018-Feb-12 08:01N 37°48' W 122°23'4 7.2
2018-Feb-12 07:30N 37°46' W 122°20'4 7.7
2018-Feb-12 07:00N 37°48' W 122°24'0 0.0
2018-Feb-12 06:30N 37°48' W 122°24'0 0.0
2018-Feb-12 06:00N 37°48' W 122°24'0 0.0
2018-Feb-12 05:30N 37°48' W 122°24'0 0.0
2018-Feb-12 05:00N 37°48' W 122°24'3 5.8
2018-Feb-12 04:30N 37°48' W 122°20'3 6.1
2018-Feb-12 04:00N 37°49' W 122°24'1 1.0
2018-Feb-12 03:30N 37°48' W 122°24'0 0.0
2018-Feb-12 03:00N 37°48' W 122°24'2 4.3
2018-Feb-12 02:30N 37°48' W 122°21'3 7.1
2018-Feb-12 02:00N 37°49' W 122°25'2 3.4
2018-Feb-12 01:30N 37°48' W 122°24'0 0.0
2018-Feb-12 01:00N 37°48' W 122°24'0 0.0
2018-Feb-12 00:30N 37°48' W 122°24'0 0.0
2018-Feb-12 00:00N 37°48' W 122°24'0 0.0
2018-Feb-11 23:30N 37°48' W 122°24'0 0.3
2018-Feb-11 23:01N 37°48' W 122°24'4 7.2
2018-Feb-11 22:30N 37°46' W 122°20'1 1.9
2018-Feb-11 22:00N 37°45' W 122°21'1 2.7
2018-Feb-11 21:30N 37°46' W 122°22'611.8
2018-Feb-11 21:00N 37°49' W 122°28'2 3.0
2018-Feb-11 20:14N 37°48' W 122°31'522.0
2018-Feb-11 20:00N 37°49' W 122°25'2 5.0
2018-Feb-11 19:31N 37°48' W 122°22'1 2.1
2018-Feb-11 19:01N 37°48' W 122°24'3 5.7
2018-Feb-11 18:30N 37°48' W 122°20'3 5.8
2018-Feb-11 18:00N 37°48' W 122°24'0 0.0
2018-Feb-11 17:30N 37°48' W 122°24'0 0.1
2018-Feb-11 17:00N 37°48' W 122°24'0 0.1
2018-Feb-11 16:30N 37°48' W 122°24'0 0.0
2018-Feb-11 16:00N 37°48' W 122°24'0 0.0
2018-Feb-11 15:30N 37°48' W 122°24'4 7.7
2018-Feb-11 15:00N 37°49' W 122°28'4 7.7
2018-Feb-11 14:30N 37°48' W 122°24'1 2.3
2018-Feb-11 14:00N 37°48' W 122°22'2 4.3
2018-Feb-11 13:30N 37°48' W 122°20'2 4.3
2018-Feb-11 13:00N 37°46' W 122°21'4 7.0
2018-Feb-11 12:30N 37°48' W 122°24'2 3.4
2018-Feb-11 12:00N 37°49' W 122°26'0 0.5
2018-Feb-11 11:31N 37°49' W 122°26'1 2.1
2018-Feb-11 11:00N 37°49' W 122°27'510.9
2018-Feb-11 10:30N 37°49' W 122°20'3 5.8
2018-Feb-11 10:00N 37°48' W 122°24'0 0.0
2018-Feb-11 09:30N 37°48' W 122°24'0 0.0
2018-Feb-11 09:00N 37°48' W 122°24'0 0.0
2018-Feb-11 08:30N 37°48' W 122°24'0 0.0
2018-Feb-11 08:00N 37°48' W 122°24'0 0.0
2018-Feb-11 07:30N 37°48' W 122°24'0 0.0
2018-Feb-11 07:00N 37°48' W 122°24'0 0.0
2018-Feb-11 06:30N 37°48' W 122°24'0 0.0
2018-Feb-11 06:00N 37°48' W 122°24'0 0.0
2018-Feb-11 05:30N 37°48' W 122°24'0 0.0
2018-Feb-11 05:00N 37°48' W 122°24'0 0.0
2018-Feb-11 04:31N 37°48' W 122°24'0 0.0
2018-Feb-11 04:00N 37°48' W 122°24'0 0.0
2018-Feb-11 03:30N 37°48' W 122°24'0 0.0
2018-Feb-11 03:00N 37°48' W 122°24'0 0.0
2018-Feb-11 02:30N 37°48' W 122°24'3 5.8
2018-Feb-11 02:00N 37°49' W 122°20'3 6.0
2018-Feb-11 01:31N 37°46' W 122°21'3 6.7
2018-Feb-11 01:00N 37°48' W 122°24'1 1.3
2018-Feb-11 00:30N 37°49' W 122°24'1 1.3
2018-Feb-11 00:00N 37°48' W 122°24'0 0.0
2018-Feb-10 23:31N 37°48' W 122°24'0 0.0
2018-Feb-10 23:01N 37°48' W 122°24'0 0.0
2018-Feb-10 22:31N 37°48' W 122°24'3 5.9
2018-Feb-10 22:01N 37°46' W 122°21'3 5.9
2018-Feb-10 21:30N 37°48' W 122°24'0 0.0
2018-Feb-10 21:00N 37°48' W 122°24'0 0.0
2018-Feb-10 20:30N 37°48' W 122°24'0 0.1
2018-Feb-10 20:01N 37°48' W 122°24'2 4.6
2018-Feb-10 19:31N 37°47' W 122°21'2 4.5
2018-Feb-10 19:00N 37°48' W 122°24'0 0.0
2018-Feb-10 18:30N 37°48' W 122°24'1 2.6
2018-Feb-10 18:00N 37°49' W 122°25'0 0.2
2018-Feb-10 17:31N 37°49' W 122°25'  

Dump ship's entire track history